• Join FlightAware (Why Join?)
  • Login
  • US Flag 
04:50AM EST


 

Airport Tracker/Info


-or-


 

Live Flight TrackerFlight Track Log ✈ FSR411 ✈ 25-Apr-2014 ✈ KCMI - KLCI

Flight Track Log - Related Links

Times and Time Zones

All times are in EDT time to prevent confusion due to time zone crossing. See the FSR411 flight status page for this flight to view local times or setup timezone preferences in your user account.

Time Position Orientation Groundspeed Altitude Reporting Facility
EDT Latitude Longitude Course Direction KTS MPH feet Rate Location/Type
08:42AM 40.0886 -88.2936 76° East 214 246 41,000  Level Chicago Center
08:43AM 40.1125 -88.2008 71° East 278 320 8,100 -14,100 Descending Chicago Center
08:44AM 40.1375 -88.1058 71° East 278 320 11,900 3,300 Climbing Chicago Center
08:45AM 40.1653 -87.9875 73° East 330 380 15,000 3,000 Climbing Chicago Center
08:46AM 40.1981 -87.8469 73° East 383 441 18,200 3,120 Climbing Chicago Center
08:47AM 40.0437 -88.2525 76° East  Level FlightAware Approximate
08:47AM 40.2339 -87.6983 72° East 420 483 21,500  Level Chicago Center
08:48AM 40.2683 -87.5494 73° East 425 489 24,400 2,880 Climbing Chicago Center
08:49AM 40.3044 -87.3903 73° East 438 504 27,500 2,940 Climbing Chicago Center
08:50AM 40.3392 -87.2361 73° East 439 505 30,500 2,700 Climbing Chicago Center
08:51AM 40.3725 -87.0886 73° East 421 484 33,200 2,520 Climbing Chicago Center
08:52AM 40.4114 -86.9142 74° East 411 473 35,800 1,800 Climbing Chicago Center
08:53AM 40.4442 -86.7692 73° East 410 472 37,000 1,020 Climbing Chicago Center
08:54AM 40.4769 -86.6189 74° East 421 484 38,000 900 Climbing Chicago Center
08:55AM 40.5103 -86.4661 74° East 429 494 38,900 900 Climbing Chicago Center
08:56AM 40.5444 -86.3131 74° East 432 497 39,900 960 Climbing Chicago Center
08:57AM 40.5775 -86.1581 74° East 436 502 40,900 480 Climbing Chicago Center
08:58AM 40.6114 -86.0008 74° East 442 509 41,000  Climbing Chicago Center
08:59AM 40.6467 -85.8356 74° East 466 536 41,000  Level Chicago Center
09:00AM 40.6858 -85.6483 75° East 483 556 41,000  Level Chicago Center
09:01AM 40.7217 -85.4756 75° East 491 565 41,000  Level Chicago Center
09:02AM 40.7567 -85.3053 75° East 485 558 41,000  Level Chicago Center
09:03AM 40.7989 -85.0986 75° East 490 564 41,000  Level Chicago Center
09:05AM 40.8678 -84.7606 75° East 484 557 41,000  Level Cleveland Center
09:06AM 40.8886 -84.6575 75° East 484 557 41,000  Level Chicago Center
09:07AM 40.9225 -84.4869 75° East 484 557 41,000  Level Chicago Center
09:08AM 40.9567 -84.3144 75° East 485 558 41,000  Level Chicago Center
09:09AM 41.0069 -84.1108 72° East 485 558 41,000  Level Chicago Center
09:10AM 41.0469 -83.9414 73° East 486 559 41,000  Level Chicago Center
09:11AM 41.0867 -83.7706 73° East 486 559 41,000  Level Chicago Center
09:12AM 41.1275 -83.5989 72° East 487 560 41,000  Level Chicago Center
09:13AM 41.1725 -83.4056 73° East 489 563 41,000  Level Indianapolis Center
09:14AM 41.2122 -83.2300 73° East 491 565 41,000  Level Indianapolis Center
09:15AM 41.2525 -83.0544 73° East 494 568 41,000  Level Indianapolis Center
09:16AM 41.2919 -82.8811 73° East 492 566 41,000  Level Indianapolis Center
09:17AM 41.3297 -82.7089 74° East 484 557 41,000  Level Indianapolis Center
09:18AM 41.3675 -82.5386 73° East 479 551 41,000  Level Indianapolis Center
09:19AM 41.4053 -82.3686 73° East 477 549 41,000  Level Indianapolis Center
09:20AM 41.4489 -82.1700 74° East 476 548 41,000  Level Indianapolis Center
09:21AM 41.4858 -81.9989 74° East 476 548 41,000  Level Indianapolis Center
09:22AM 41.5233 -81.8278 74° East 475 547 41,000  Level Indianapolis Center
09:23AM 41.5597 -81.6567 74° East 473 544 41,000  Level Indianapolis Center
09:25AM 41.6069 -81.4306 74° East 469 540 41,000  Level Cleveland Center
09:26AM 41.6433 -81.2592 74° East 469 540 41,000  Level Cleveland Center
09:27AM 41.6836 -81.0625 75° East 469 540 41,000  Level Cleveland Center
09:28AM 41.7194 -80.8944 74° East 468 539 41,000  Level Cleveland Center
09:29AM 41.7547 -80.7247 74° East 468 539 41,000  Level Cleveland Center
09:30AM 41.7883 -80.5547 75° East 468 539 41,000  Level Cleveland Center
09:31AM 41.8239 -80.3844 74° East 468 539 41,000  Level Cleveland Center
09:32AM 41.8575 -80.2128 75° East 470 541 41,000  Level Cleveland Center
09:33AM 41.8919 -80.0411 75° East 472 543 41,000  Level Cleveland Center
09:34AM 41.9300 -79.8436 75° East 472 543 41,000  Level Cleveland Center
09:35AM 41.9606 -79.6878 75° East 472 543 41,000  Level Cleveland Center
09:36AM 41.9922 -79.5186 76° East 471 542 41,000  Level Cleveland Center
09:37AM 42.0314 -79.3128 76° East 472 543 41,000  Level Cleveland Center
09:38AM 42.0633 -79.1414 76° East 472 543 41,000  Level Cleveland Center
09:39AM 42.0950 -78.9711 76° East 473 544 41,000  Level Cleveland Center
09:40AM 42.1278 -78.7986 76° East 473 544 41,000  Level Cleveland Center
09:41AM 42.1589 -78.6292 76° East 470 541 41,000  Level Cleveland Center
09:43AM 42.2000 -78.4358 74° East 470 541 41,000  Level Cleveland Center
09:44AM 42.2392 -78.2678 72° East 471 542 41,000  Level Cleveland Center
09:45AM 42.2778 -78.1008 73° East 470 541 41,000  Level Cleveland Center
09:46AM 42.3161 -77.9322 73° East 470 541 41,000  Level Cleveland Center
09:47AM 42.3617 -77.7306 73° East 471 542 41,000  Level Cleveland Center
09:48AM 42.3989 -77.5622 73° East 472 543 41,000  Level Cleveland Center
09:49AM 42.4353 -77.3939 74° East 473 544 41,000  Level Cleveland Center
09:50AM 42.4733 -77.2253 73° East 473 544 41,000  Level Cleveland Center
09:51AM 42.5103 -77.0550 74° East 474 545 41,000  Level Cleveland Center
09:52AM 42.5542 -76.8486 74° East 475 547 41,000  Level Cleveland Center
09:53AM 42.5922 -76.6758 73° East 477 549 41,000  Level Cleveland Center
09:54AM 42.6283 -76.5042 74° East 477 549 41,000  Level Cleveland Center
09:55AM 42.6681 -76.3108 74° East 479 551 41,000  Level Cleveland Center
09:56AM 42.7050 -76.1367 74° East 479 551 41,000  Level Cleveland Center
09:57AM 42.7411 -75.9631 74° East 479 551 41,000  Level Cleveland Center
09:58AM 42.7761 -75.7881 75° East 480 552 41,000 -240 Level Cleveland Center
09:59AM 42.8117 -75.6122 75° East 481 554 40,600 -1,740 Descending Cleveland Center
10:00AM 42.8542 -75.4031 74° East 481 554 37,500 -2,760 Descending Cleveland Center
10:01AM 42.8889 -75.2283 75° East 481 554 34,900 -2,520 Descending Cleveland Center
10:02AM 42.9236 -75.0511 75° East 488 562 32,400 -2,400 Descending Cleveland Center
10:04AM 42.9728 -74.8014 75° East 490 564 29,200 -2,160 Descending Boston Center
10:05AM 43.0067 -74.6269 75° East 483 556 27,200 -1,980 Descending Boston Center
10:06AM 43.0428 -74.4397 75° East 507 583 25,200 -1,080 Descending Boston Center
10:07AM 43.0847 -74.2186 75° East 507 583 25,000 -240 Descending Boston Center
10:08AM 43.1192 -74.0342 76° East 506 582 24,800 -420 Descending Boston Center
10:09AM 43.1522 -73.8542 76° East 497 572 24,200 -1,080 Descending Boston Center
10:10AM 43.1869 -73.6658 76° East 493 567 22,700 -1,500 Descending Boston Center
10:11AM 43.2186 -73.4911 76° East 479 551 21,200 -1,500 Descending Boston Center
10:12AM 43.2522 -73.3072 76° East 467 537 19,700 -1,080 Descending Boston Center
10:13AM 43.2819 -73.1375 76° East 458 527 19,000 -360 Descending Boston Center
10:14AM 43.3111 -72.9717 76° East 455 524 19,000  Level Boston Center
10:15AM 43.3400 -72.8083 76° East 444 511 19,000 -600 Level Boston Center
10:16AM 43.3681 -72.6458 77° East 441 507 17,800 -1,320 Descending Boston Center
10:17AM 43.3958 -72.4825 77° East 440 506 16,400 -1,440 Descending Boston Center
10:18AM 43.4231 -72.3253 77° East 426 490 14,900 -1,740 Descending Boston Center
10:19AM 43.4461 -72.1839 77° East 389 448 12,900 -1,980 Descending Boston Center
10:20AM 43.4683 -72.0567 76° East 351 404 10,900 -1,860 Descending Boston Center
10:21AM 43.4900 -71.9178 78° East 318 366 9,100 -960 Descending Boston Center
10:22AM 43.5086 -71.8128 76° East 270 311 9,000 -480 Descending Boston Center
10:23AM 43.5242 -71.7175 77° East 258 297 8,200 -660 Descending Boston Center
10:24AM 43.5403 -71.6211 77° East 258 297 7,700 -540 Descending Boston Center